East Smithfield, Pennsylvania
Current Conditions -  °F | °C
As of 8:53 PM on Thursday 18 Dec 2014 (Local Time) from KELM Reporting Station
Overcast Overcast  
Wind Chill: 26°   Ceiling: 2400
Heat Index: 32°   Visibility: 10mi
Dew Point: 28°   Wind: 6mph
Humidity: 85%   Direction: 240°WSW
Pressure: 30.01"   Gusts: NA
Location:  41.86°N, 76.63°W
Report Text: KELM 190153Z 24005KT 10SM BKN024 BKN030 OVC039 00/M02 A3001 RMK AO2 SLP171 T00001022
Loading
Personal Weather Stations






























Interactive Weather Map New forecast layout! Learn more

10-Day Weather Forecast

Advertisements
Track Severe Weather on mobile